createdAt,value
2018-05-17T00:00:36.172Z,101621.93
2018-05-17T00:03:04.331Z,101622.08
2018-05-17T00:05:32.445Z,101621.45
2018-05-17T00:08:00.774Z,101631.28
2018-05-17T00:10:28.917Z,101629.48
2018-05-17T00:12:57.040Z,101638.35
2018-05-17T00:15:25.161Z,101637.57
2018-05-17T00:17:53.302Z,101647.19
2018-05-17T00:20:21.441Z,101645.64
2018-05-17T00:22:49.545Z,101648.22
2018-05-17T00:25:17.700Z,101646.30
2018-05-17T00:27:45.841Z,101647.98
2018-05-17T00:30:13.975Z,101647.42
2018-05-17T00:32:42.286Z,101650.13
2018-05-17T00:35:10.395Z,101646.00
2018-05-17T00:37:38.520Z,101649.50
2018-05-17T00:40:06.655Z,101644.05
2018-05-17T00:42:34.758Z,101646.69
2018-05-17T00:45:02.900Z,101647.89
2018-05-17T00:47:31.042Z,101647.58
2018-05-17T00:49:59.176Z,101647.37
2018-05-17T00:52:27.375Z,101651.81
2018-05-17T00:54:55.711Z,101651.14
2018-05-17T00:57:23.758Z,101648.42
2018-05-17T00:59:51.888Z,101648.71
2018-05-17T01:02:20.047Z,101647.35
2018-05-17T01:04:48.183Z,101655.19
2018-05-17T01:07:16.284Z,101641.58
2018-05-17T01:09:44.434Z,101654.19
2018-05-17T01:12:13.047Z,101652.12
2018-05-17T01:14:41.155Z,101655.10
2018-05-17T01:17:09.297Z,101640.45
2018-05-17T01:19:37.420Z,101647.44
2018-05-17T01:22:05.554Z,101651.95
2018-05-17T01:24:33.685Z,101655.05
2018-05-17T01:27:01.814Z,101655.89
2018-05-17T01:29:29.933Z,101652.78
2018-05-17T01:31:58.227Z,101666.20
2018-05-17T01:34:26.335Z,101669.59
2018-05-17T01:37:06.413Z,101666.61
2018-05-17T01:39:34.548Z,101674.51
2018-05-17T01:42:02.675Z,101676.44
2018-05-17T01:44:30.836Z,101678.84
2018-05-17T01:46:58.954Z,101680.84
2018-05-17T01:49:27.062Z,101677.53
2018-05-17T01:51:55.206Z,101682.25
2018-05-17T01:54:23.325Z,101682.92
2018-05-17T01:56:51.456Z,101681.52
2018-05-17T01:59:19.799Z,101690.45
2018-05-17T02:01:47.938Z,101694.09
2018-05-17T02:04:16.060Z,101693.17
2018-05-17T02:06:44.178Z,101691.31
2018-05-17T02:09:12.313Z,101698.37
2018-05-17T02:11:40.428Z,101701.15
2018-05-17T02:14:08.577Z,101704.45
2018-05-17T02:16:36.708Z,101699.58
2018-05-17T02:19:04.919Z,101700.50
2018-05-17T02:21:32.961Z,101704.34
2018-05-17T02:24:01.104Z,101704.54
2018-05-17T02:26:29.242Z,101708.40
2018-05-17T02:28:57.373Z,101701.66
2018-05-17T02:31:25.560Z,101702.14
2018-05-17T02:33:53.663Z,101695.20
2018-05-17T02:36:21.814Z,101697.27
2018-05-17T02:38:49.956Z,101700.80
2018-05-17T02:41:18.057Z,101704.87
2018-05-17T02:43:46.219Z,101700.32
2018-05-17T02:46:14.345Z,101699.25
2018-05-17T02:48:42.470Z,101703.95
2018-05-17T02:51:10.604Z,101705.66
2018-05-17T02:53:38.752Z,101705.81
2018-05-17T02:56:07.287Z,101705.69
2018-05-17T02:58:35.510Z,101701.06
2018-05-17T03:01:03.610Z,101706.27
2018-05-17T03:03:31.745Z,101706.98
2018-05-17T03:05:59.873Z,101715.06
2018-05-17T03:08:27.978Z,101708.64
2018-05-17T03:10:56.091Z,101711.75
2018-05-17T03:13:24.225Z,101707.36
2018-05-17T03:15:52.379Z,101714.66
2018-05-17T03:18:20.519Z,101722.69
2018-05-17T03:20:48.653Z,101727.00
2018-05-17T03:23:16.773Z,101721.12
2018-05-17T03:25:44.915Z,101724.21
2018-05-17T03:28:13.063Z,101720.08
2018-05-17T03:30:41.195Z,101715.59
2018-05-17T03:33:09.332Z,101715.94
2018-05-17T03:35:37.480Z,101716.53
2018-05-17T03:38:05.594Z,101712.98
2018-05-17T03:40:33.723Z,101713.33
2018-05-17T03:43:01.847Z,101713.61
2018-05-17T03:45:33.382Z,101715.98
2018-05-17T03:48:01.538Z,101715.04
2018-05-17T03:50:29.669Z,101713.62
2018-05-17T03:52:57.811Z,101715.50
2018-05-17T03:55:25.947Z,101720.06
2018-05-17T03:57:56.084Z,101717.97
2018-05-17T04:00:24.217Z,101717.90
2018-05-17T04:03:04.495Z,101721.52
2018-05-17T04:05:44.457Z,101718.48
2018-05-17T04:08:12.596Z,101720.73
2018-05-17T04:10:40.708Z,101722.97
2018-05-17T04:13:08.829Z,101727.22
2018-05-17T04:15:37.301Z,101725.45
2018-05-17T04:18:05.447Z,101731.19
2018-05-17T04:20:33.629Z,101729.28
2018-05-17T04:23:01.840Z,101734.19
2018-05-17T04:25:29.943Z,101742.47
2018-05-17T04:27:58.062Z,101737.91
2018-05-17T04:30:26.198Z,101738.11
2018-05-17T04:32:54.331Z,101744.64
2018-05-17T04:35:22.456Z,101740.70
2018-05-17T04:37:50.620Z,101744.09
2018-05-17T04:40:18.740Z,101742.75
2018-05-17T04:42:46.889Z,101747.55
2018-05-17T04:45:15.021Z,101748.72
2018-05-17T04:47:43.118Z,101748.72
2018-05-17T04:50:11.263Z,101747.07
2018-05-17T04:52:39.457Z,101748.84
2018-05-17T04:55:07.577Z,101745.70
2018-05-17T04:57:35.753Z,101749.55
2018-05-17T05:00:07.337Z,101743.70
2018-05-17T05:02:35.544Z,101747.57
2018-05-17T05:05:03.601Z,101742.19
2018-05-17T05:07:31.730Z,101744.58
2018-05-17T05:09:59.849Z,101743.64
2018-05-17T05:12:27.990Z,101740.83
2018-05-17T05:14:56.125Z,101742.55
2018-05-17T05:17:24.256Z,101750.34
2018-05-17T05:19:52.405Z,101740.71
2018-05-17T05:22:20.527Z,101740.38
2018-05-17T05:24:48.669Z,101742.90
2018-05-17T05:27:16.771Z,101745.48
2018-05-17T05:29:44.902Z,101734.58
2018-05-17T05:32:13.021Z,101738.85
2018-05-17T05:34:41.135Z,101741.97
2018-05-17T05:37:09.284Z,101740.56
2018-05-17T05:39:37.405Z,101746.60
2018-05-17T05:42:05.529Z,101746.10
2018-05-17T05:44:33.692Z,101755.67
2018-05-17T05:47:01.872Z,101753.39
2018-05-17T05:49:30.045Z,101760.66
2018-05-17T05:51:58.135Z,101757.41
2018-05-17T05:54:26.269Z,101764.03
2018-05-17T05:56:54.385Z,101763.08
2018-05-17T05:59:22.543Z,101764.95
2018-05-17T06:01:50.642Z,101766.25
2018-05-17T06:04:18.772Z,101771.64
2018-05-17T06:06:46.907Z,101768.80
2018-05-17T06:09:15.111Z,101771.31
2018-05-17T06:11:47.007Z,101771.37
2018-05-17T06:14:15.144Z,101771.61
2018-05-17T06:16:43.283Z,101766.00
2018-05-17T06:19:11.397Z,101764.27
2018-05-17T06:21:39.823Z,101767.02
2018-05-17T06:24:07.941Z,101771.32
2018-05-17T06:26:36.051Z,101773.20
2018-05-17T06:29:04.195Z,101770.69
2018-05-17T06:31:32.336Z,101768.70
2018-05-17T06:34:00.528Z,101776.19
2018-05-17T06:36:28.710Z,101764.23
2018-05-17T06:38:56.850Z,101767.95
2018-05-17T06:41:24.965Z,101770.64
2018-05-17T06:43:53.164Z,101773.75
2018-05-17T06:46:21.224Z,101769.65
2018-05-17T06:48:49.331Z,101770.55
2018-05-17T06:51:17.457Z,101767.36
2018-05-17T06:53:45.599Z,101766.86
2018-05-17T06:56:13.717Z,101766.86
2018-05-17T06:58:41.867Z,101766.77
2018-05-17T07:01:10.071Z,101773.32
2018-05-17T07:03:38.264Z,101767.54
2018-05-17T07:06:06.409Z,101770.64
2018-05-17T07:08:34.549Z,101772.64
2018-05-17T07:11:02.666Z,101779.44
2018-05-17T07:13:30.805Z,101782.02
2018-05-17T07:15:58.914Z,101778.27
2018-05-17T07:18:27.253Z,101781.56
2018-05-17T07:20:55.213Z,101780.94
2018-05-17T07:23:23.331Z,101781.05
2018-05-17T07:25:51.456Z,101784.56
2018-05-17T07:28:19.575Z,101786.03
2018-05-17T07:30:47.696Z,101780.77
2018-05-17T07:33:15.821Z,101791.08
2018-05-17T07:35:43.970Z,101783.59
2018-05-17T07:38:12.080Z,101777.73
2018-05-17T07:40:40.223Z,101784.53
2018-05-17T07:43:08.365Z,101774.48
2018-05-17T07:45:36.479Z,101783.22
2018-05-17T07:48:04.619Z,101787.92
2018-05-17T07:50:32.753Z,101781.69
2018-05-17T07:53:00.885Z,101790.80
2018-05-17T07:55:29.074Z,101788.97
2018-05-17T07:57:57.161Z,101778.06
2018-05-17T08:00:25.371Z,101791.14
2018-05-17T08:02:53.408Z,101791.64
2018-05-17T08:05:21.566Z,101787.67
2018-05-17T08:07:49.684Z,101783.86
2018-05-17T08:10:17.809Z,101784.22
2018-05-17T08:12:45.960Z,101791.34
2018-05-17T08:15:14.096Z,101789.42
2018-05-17T08:17:42.211Z,101792.19
2018-05-17T08:20:10.375Z,101803.03
2018-05-17T08:22:38.480Z,101802.52
2018-05-17T08:25:06.620Z,101803.14
2018-05-17T08:27:34.768Z,101798.02
2018-05-17T08:30:02.893Z,101803.34
2018-05-17T08:32:31.027Z,101805.57
2018-05-17T08:34:59.231Z,101809.01
2018-05-17T08:37:27.385Z,101802.33
2018-05-17T08:39:55.509Z,101803.17
2018-05-17T08:42:23.939Z,101799.58
2018-05-17T08:44:52.046Z,101800.97
2018-05-17T08:47:20.172Z,101797.38
2018-05-17T08:49:48.313Z,101803.21
2018-05-17T08:52:16.457Z,101797.72
2018-05-17T08:54:44.577Z,101798.80
2018-05-17T08:57:12.888Z,101796.42
2018-05-17T08:59:41.058Z,101796.58
2018-05-17T09:02:09.122Z,101797.34
2018-05-17T09:04:37.261Z,101809.59
2018-05-17T09:07:05.399Z,101804.97
2018-05-17T09:09:33.535Z,101798.09
2018-05-17T09:12:01.688Z,101799.08
2018-05-17T09:14:29.817Z,101808.52
2018-05-17T09:16:57.920Z,101807.13
2018-05-17T09:19:26.237Z,101810.10
2018-05-17T09:21:54.365Z,101808.62
2018-05-17T09:24:22.523Z,101808.59
2018-05-17T09:26:50.657Z,101804.66
2018-05-17T09:29:18.965Z,101807.95
2018-05-17T09:31:47.266Z,101808.99
2018-05-17T09:34:15.402Z,101813.86
2018-05-17T09:36:43.528Z,101805.44
2018-05-17T09:39:11.668Z,101804.80
2018-05-17T09:41:39.805Z,101807.36
2018-05-17T09:44:07.925Z,101810.08
2018-05-17T09:46:36.031Z,101806.32
2018-05-17T09:49:04.186Z,101804.66
2018-05-17T09:51:32.319Z,101796.67
2018-05-17T09:54:00.463Z,101803.14
2018-05-17T09:56:28.605Z,101809.53
2018-05-17T09:58:56.722Z,101807.72
2018-05-17T10:01:24.831Z,101802.87
2018-05-17T10:03:52.966Z,101798.97
2018-05-17T10:06:21.081Z,101794.86
2018-05-17T10:08:49.288Z,101798.97
2018-05-17T10:11:17.363Z,101799.36
2018-05-17T10:13:45.471Z,101795.05
2018-05-17T10:16:13.601Z,101792.78
2018-05-17T10:18:41.734Z,101790.55
2018-05-17T10:21:09.858Z,101791.31
2018-05-17T10:23:37.988Z,101789.25
2018-05-17T10:26:06.121Z,101795.05
2018-05-17T10:28:34.252Z,101788.76
2018-05-17T10:31:02.359Z,101788.48
2018-05-17T10:33:30.771Z,101782.78
2018-05-17T10:35:58.881Z,101780.56
2018-05-17T10:38:27.011Z,101778.64
2018-05-17T10:40:55.127Z,101773.51
2018-05-17T10:43:23.258Z,101773.16
2018-05-17T10:45:51.381Z,101775.52
2018-05-17T10:48:19.504Z,101777.77
2018-05-17T10:50:47.629Z,101778.52
2018-05-17T10:53:15.753Z,101778.03
2018-05-17T10:55:43.906Z,101779.05
2018-05-17T10:58:12.011Z,101769.31
2018-05-17T11:00:40.151Z,101763.80
2018-05-17T11:03:08.270Z,101765.12
2018-05-17T11:05:36.387Z,101772.14
2018-05-17T11:08:04.513Z,101764.77
2018-05-17T11:10:32.662Z,101769.30
2018-05-17T11:13:00.792Z,101762.00
2018-05-17T11:15:28.898Z,101762.94
2018-05-17T11:17:57.039Z,101755.80
2018-05-17T11:20:25.135Z,101755.28
2018-05-17T11:22:53.262Z,101756.94
2018-05-17T11:25:21.390Z,101760.34
2018-05-17T11:27:49.501Z,101762.55
2018-05-17T11:30:17.643Z,101746.44
2018-05-17T11:32:45.777Z,101753.16
2018-05-17T11:35:13.903Z,101759.43
2018-05-17T11:37:42.022Z,101751.80
2018-05-17T11:40:10.179Z,101758.25
2018-05-17T11:42:38.297Z,101755.95
2018-05-17T11:45:06.431Z,101755.51
2018-05-17T11:47:34.583Z,101748.05
2018-05-17T11:50:02.766Z,101742.87
2018-05-17T11:52:30.879Z,101741.99
2018-05-17T11:54:59.041Z,101738.08
2018-05-17T11:57:27.176Z,101745.16
2018-05-17T11:59:55.413Z,101737.98
2018-05-17T12:02:23.542Z,101739.78
2018-05-17T12:04:51.676Z,101737.09
2018-05-17T12:07:19.890Z,101736.61
2018-05-17T12:09:47.993Z,101746.23
2018-05-17T12:12:16.126Z,101741.00
2018-05-17T12:14:44.231Z,101734.39
2018-05-17T12:17:12.387Z,101731.11
2018-05-17T12:19:40.494Z,101730.73
2018-05-17T12:22:08.647Z,101721.33
2018-05-17T12:24:36.784Z,101719.76
2018-05-17T12:27:04.916Z,101723.52
2018-05-17T12:29:33.033Z,101720.75
2018-05-17T12:32:01.265Z,101714.92
2018-05-17T12:34:32.397Z,101716.92
2018-05-17T12:37:00.540Z,101716.08
2018-05-17T12:39:28.690Z,101719.55
2018-05-17T12:41:56.794Z,101717.61
2018-05-17T12:44:24.921Z,101713.73
2018-05-17T12:46:53.080Z,101715.05
2018-05-17T12:49:21.420Z,101712.41
2018-05-17T12:51:49.522Z,101721.81
2018-05-17T12:54:17.687Z,101719.80
2018-05-17T12:56:45.859Z,101709.67
2018-05-17T12:59:14.065Z,101719.41
2018-05-17T13:01:42.180Z,101717.23
2018-05-17T13:04:10.304Z,101709.76
2018-05-17T13:06:38.430Z,101712.72
2018-05-17T13:09:06.583Z,101713.19
2018-05-17T13:11:34.688Z,101708.37
2018-05-17T13:14:02.827Z,101709.83
2018-05-17T13:16:30.946Z,101704.05
2018-05-17T13:18:59.076Z,101697.72
2018-05-17T13:21:27.193Z,101698.24
2018-05-17T13:23:55.333Z,101701.52
2018-05-17T13:26:23.458Z,101691.03
2018-05-17T13:28:51.581Z,101696.06
2018-05-17T13:31:19.730Z,101695.39
2018-05-17T13:33:47.857Z,101694.87
2018-05-17T13:36:15.985Z,101686.27
2018-05-17T13:38:44.108Z,101688.73
2018-05-17T13:41:12.238Z,101693.69
2018-05-17T13:43:40.356Z,101681.81
2018-05-17T13:46:08.512Z,101673.80
2018-05-17T13:48:36.632Z,101674.45
2018-05-17T13:51:04.765Z,101683.48
2018-05-17T13:53:33.549Z,101683.14
2018-05-17T13:56:01.674Z,101679.17
2018-05-17T13:58:29.782Z,101685.59
2018-05-17T14:00:57.949Z,101670.05
2018-05-17T14:03:26.093Z,101675.49
2018-05-17T14:05:54.752Z,101685.05
2018-05-17T14:08:22.890Z,101672.25
2018-05-17T14:10:51.031Z,101666.41
2018-05-17T14:13:19.162Z,101671.45
2018-05-17T14:15:47.312Z,101677.40
2018-05-17T14:18:15.448Z,101671.20
2018-05-17T14:20:49.975Z,101676.27
2018-05-17T14:23:18.097Z,101687.73
2018-05-17T14:25:46.202Z,101682.07
2018-05-17T14:28:14.331Z,101684.09
2018-05-17T14:30:42.474Z,101680.45
2018-05-17T14:33:10.576Z,101683.44
2018-05-17T14:35:38.742Z,101674.97
2018-05-17T14:38:06.889Z,101679.89
2018-05-17T14:40:35.006Z,101679.23
2018-05-17T14:43:03.165Z,101670.50
2018-05-17T14:45:31.274Z,101674.55
2018-05-17T14:47:59.398Z,101664.06
2018-05-17T14:50:27.537Z,101666.64
2018-05-17T14:52:55.668Z,101664.75
2018-05-17T14:55:23.775Z,101673.41
2018-05-17T14:57:51.932Z,101659.79
2018-05-17T15:00:20.064Z,101666.67
2018-05-17T15:02:48.188Z,101673.17
2018-05-17T15:05:16.354Z,101670.27
2018-05-17T15:07:44.484Z,101673.34
2018-05-17T15:10:12.633Z,101671.26
2018-05-17T15:12:40.760Z,101670.60
2018-05-17T15:15:08.866Z,101668.21
2018-05-17T15:17:36.988Z,101662.40
2018-05-17T15:20:05.133Z,101671.72
2018-05-17T15:22:33.308Z,101667.77
2018-05-17T15:25:01.446Z,101668.87
2018-05-17T15:27:29.684Z,101672.83
2018-05-17T15:29:57.834Z,101667.53
2018-05-17T15:32:25.852Z,101671.48
2018-05-17T15:34:54.006Z,101676.28
2018-05-17T15:37:22.131Z,101672.92
2018-05-17T15:39:50.259Z,101672.55
2018-05-17T15:42:18.411Z,101670.91
2018-05-17T15:44:46.552Z,101680.97
2018-05-17T15:47:14.656Z,101671.13
2018-05-17T15:49:42.779Z,101671.48
2018-05-17T15:52:10.896Z,101674.73
2018-05-17T15:54:39.018Z,101681.37
2018-05-17T15:57:07.161Z,101666.78
2018-05-17T15:59:35.270Z,101668.17
2018-05-17T16:02:03.396Z,101659.74
2018-05-17T16:04:31.513Z,101666.78
2018-05-17T16:06:59.678Z,101657.66
2018-05-17T16:09:27.806Z,101659.40
2018-05-17T16:11:55.938Z,101658.56
2018-05-17T16:14:24.063Z,101663.04
2018-05-17T16:16:52.170Z,101666.47
2018-05-17T16:19:20.508Z,101666.77
2018-05-17T16:21:48.705Z,101660.31
2018-05-17T16:24:16.777Z,101664.22
2018-05-17T16:26:45.022Z,101669.05
2018-05-17T16:29:13.145Z,101661.95
2018-05-17T16:31:41.246Z,101678.53
2018-05-17T16:34:09.735Z,101669.70
2018-05-17T16:36:37.921Z,101668.84
2018-05-17T16:39:06.077Z,101663.32
2018-05-17T16:41:34.225Z,101663.61
2018-05-17T16:44:02.354Z,101671.61
2018-05-17T16:46:30.609Z,101667.63
2018-05-17T16:48:58.727Z,101678.98
2018-05-17T16:51:26.867Z,101680.39
2018-05-17T16:53:54.988Z,101672.05
2018-05-17T16:56:23.133Z,101677.72
2018-05-17T16:58:51.320Z,101673.74
2018-05-17T17:01:19.381Z,101677.53
2018-05-17T17:03:47.519Z,101675.62
2018-05-17T17:06:15.640Z,101677.83
2018-05-17T17:08:43.760Z,101670.94
2018-05-17T17:11:11.910Z,101674.69
2018-05-17T17:13:40.033Z,101674.56
2018-05-17T17:16:11.820Z,101674.42
2018-05-17T17:18:43.750Z,101677.06
2018-05-17T17:21:11.873Z,101681.33
2018-05-17T17:23:40.012Z,101678.51
2018-05-17T17:26:08.163Z,101683.84
2018-05-17T17:28:36.309Z,101680.77
2018-05-17T17:31:04.418Z,101683.88
2018-05-17T17:33:32.561Z,101679.23
2018-05-17T17:36:00.670Z,101680.63
2018-05-17T17:38:28.804Z,101674.30
2018-05-17T17:40:56.959Z,101688.84
2018-05-17T17:43:25.105Z,101690.08
2018-05-17T17:45:53.336Z,101684.80
2018-05-17T17:48:21.555Z,101701.48
2018-05-17T17:50:49.807Z,101704.86
2018-05-17T17:53:17.915Z,101711.31
2018-05-17T17:55:46.279Z,101705.11
2018-05-17T17:58:14.456Z,101691.03
2018-05-17T18:00:42.593Z,101696.52
2018-05-17T18:03:10.745Z,101700.97
2018-05-17T18:05:38.861Z,101701.36
2018-05-17T18:08:07.004Z,101696.24
2018-05-17T18:10:35.148Z,101694.17
2018-05-17T18:13:03.264Z,101692.19
2018-05-17T18:15:31.410Z,101697.27
2018-05-17T18:18:00.520Z,101697.44
2018-05-17T18:20:28.653Z,101706.28
2018-05-17T18:22:56.777Z,101709.09
2018-05-17T18:25:24.926Z,101706.09
2018-05-17T18:27:53.027Z,101702.95
2018-05-17T18:30:21.143Z,101704.41
2018-05-17T18:32:52.947Z,101709.70
2018-05-17T18:35:21.053Z,101709.02
2018-05-17T18:37:49.245Z,101709.11
2018-05-17T18:40:17.388Z,101713.78
2018-05-17T18:42:45.654Z,101716.56
2018-05-17T18:45:13.799Z,101722.33
2018-05-17T18:47:42.136Z,101719.70
2018-05-17T18:50:10.279Z,101717.98
2018-05-17T18:52:38.393Z,101722.33
2018-05-17T18:55:07.050Z,101728.23
2018-05-17T18:57:41.303Z,101725.61
2018-05-17T19:00:09.464Z,101723.50
2018-05-17T19:02:37.659Z,101740.75
2018-05-17T19:05:05.890Z,101732.95
2018-05-17T19:07:34.033Z,101736.14
2018-05-17T19:10:02.189Z,101739.48
2018-05-17T19:12:30.289Z,101746.11
2018-05-17T19:14:58.429Z,101753.56
2018-05-17T19:17:26.620Z,101759.30
2018-05-17T19:19:54.743Z,101763.80
2018-05-17T19:22:22.881Z,101769.45
2018-05-17T19:24:51.012Z,101774.15
2018-05-17T19:27:19.151Z,101776.38
2018-05-17T19:29:48.111Z,101778.34
2018-05-17T19:32:16.239Z,101787.11
2018-05-17T19:34:44.358Z,101792.41
2018-05-17T19:37:12.525Z,101799.95
2018-05-17T19:39:40.604Z,101798.12
2018-05-17T19:42:08.748Z,101802.92
2018-05-17T19:44:36.900Z,101805.73
2018-05-17T19:47:05.017Z,101817.26
2018-05-17T19:49:33.147Z,101814.33
2018-05-17T19:52:01.433Z,101812.59
2018-05-17T19:54:29.557Z,101818.77
2018-05-17T19:56:57.691Z,101823.27
2018-05-17T19:59:26.164Z,101824.73
2018-05-17T20:01:54.242Z,101830.91
2018-05-17T20:04:22.377Z,101823.31
2018-05-17T20:06:50.509Z,101821.59
2018-05-17T20:09:18.651Z,101827.64
2018-05-17T20:11:46.845Z,101829.91
2018-05-17T20:14:14.967Z,101835.38
2018-05-17T20:16:43.129Z,101837.37
2018-05-17T20:19:11.264Z,101836.31
2018-05-17T20:21:39.384Z,101835.88
2018-05-17T20:24:07.514Z,101837.63
2018-05-17T20:26:35.642Z,101841.02
2018-05-17T20:29:03.755Z,101842.28
2018-05-17T20:31:31.867Z,101840.60
2018-05-17T20:33:59.996Z,101848.64
2018-05-17T20:36:28.131Z,101849.00
2018-05-17T20:38:56.253Z,101846.34
2018-05-17T20:41:24.356Z,101853.13
2018-05-17T20:43:52.497Z,101844.94
2018-05-17T20:46:20.616Z,101846.94
2018-05-17T20:48:48.738Z,101844.55
2018-05-17T20:51:16.888Z,101850.05
2018-05-17T20:53:45.019Z,101850.59
2018-05-17T20:56:13.181Z,101847.78
2018-05-17T20:58:41.316Z,101852.49
2018-05-17T21:01:11.360Z,101859.73
2018-05-17T21:03:39.477Z,101860.00
2018-05-17T21:06:07.615Z,101859.61
2018-05-17T21:08:35.757Z,101859.02
2018-05-17T21:11:03.931Z,101857.52
2018-05-17T21:13:35.715Z,101857.91
2018-05-17T21:16:03.872Z,101862.56
2018-05-17T21:18:31.963Z,101864.53
2018-05-17T21:21:00.282Z,101867.23
2018-05-17T21:23:28.475Z,101863.92
2018-05-17T21:25:56.580Z,101871.68
2018-05-17T21:28:24.822Z,101868.80
2018-05-17T21:30:52.861Z,101863.73
2018-05-17T21:33:21.027Z,101870.00
2018-05-17T21:35:49.149Z,101868.58
2018-05-17T21:38:17.336Z,101874.40
2018-05-17T21:40:45.431Z,101868.48
2018-05-17T21:43:13.610Z,101862.91
2018-05-17T21:45:41.733Z,101862.12
2018-05-17T21:48:09.883Z,101856.27
2018-05-17T21:50:38.048Z,101858.25
2018-05-17T21:53:06.151Z,101855.87
2018-05-17T21:55:34.307Z,101858.38
2018-05-17T21:58:02.440Z,101864.09
2018-05-17T22:00:30.562Z,101862.71
2018-05-17T22:02:58.687Z,101861.84
2018-05-17T22:05:26.816Z,101871.01
2018-05-17T22:07:55.097Z,101864.90
2018-05-17T22:10:23.220Z,101864.63
2018-05-17T22:12:51.343Z,101860.56
2018-05-17T22:15:19.486Z,101863.41
2018-05-17T22:17:47.622Z,101861.41
2018-05-17T22:20:15.754Z,101862.98
2018-05-17T22:22:43.876Z,101857.76
2018-05-17T22:25:11.974Z,101857.77
2018-05-17T22:27:40.122Z,101859.84
2018-05-17T22:30:08.244Z,101855.97
2018-05-17T22:32:36.369Z,101856.42
2018-05-17T22:35:04.494Z,101855.78
2018-05-17T22:37:32.618Z,101855.45
2018-05-17T22:40:00.736Z,101849.92
2018-05-17T22:42:28.879Z,101850.37
2018-05-17T22:44:57.013Z,101849.73
2018-05-17T22:47:25.134Z,101844.53
2018-05-17T22:49:53.291Z,101849.55
2018-05-17T22:52:21.418Z,101848.30
2018-05-17T22:54:49.527Z,101843.45
2018-05-17T22:57:29.572Z,101843.97
2018-05-17T22:59:57.708Z,101843.86
2018-05-17T23:02:25.831Z,101840.88
2018-05-17T23:04:53.959Z,101843.24
2018-05-17T23:07:22.088Z,101839.94
2018-05-17T23:09:50.203Z,101837.31
2018-05-17T23:12:18.326Z,101834.70
2018-05-17T23:14:46.464Z,101847.33
2018-05-17T23:17:14.595Z,101838.03
2018-05-17T23:19:43.444Z,101837.41
2018-05-17T23:25:14.387Z,101845.88
2018-05-17T23:27:42.531Z,101845.86
2018-05-17T23:30:10.655Z,101842.27
2018-05-17T23:32:38.794Z,101842.16
2018-05-17T23:35:06.944Z,101837.14
2018-05-17T23:37:35.155Z,101836.63
2018-05-17T23:40:14.975Z,101839.24
2018-05-17T23:42:43.102Z,101835.82
2018-05-17T23:45:11.223Z,101839.31
2018-05-17T23:47:39.350Z,101826.61
2018-05-17T23:50:07.483Z,101831.45
2018-05-17T23:52:35.612Z,101833.33
2018-05-17T23:55:03.747Z,101831.75
2018-05-17T23:57:31.866Z,101828.72
2018-05-17T23:59:59.970Z,101826.64
